sensor_id;sensor_type;location;lat;lon;timestamp;P1;durP1;ratioP1;P2;durP2;ratioP2
62933;SDS011;49038;47.600;19.242;2023-06-19T00:00:02;3.53;;;2.55;;
62933;SDS011;49038;47.600;19.242;2023-06-19T00:03:09;4.15;;;2.50;;
62933;SDS011;49038;47.600;19.242;2023-06-19T00:06:11;4.85;;;2.90;;
62933;SDS011;49038;47.600;19.242;2023-06-19T00:09:14;4.35;;;3.15;;
62933;SDS011;49038;47.600;19.242;2023-06-19T00:12:17;4.32;;;2.53;;
62933;SDS011;49038;47.600;19.242;2023-06-19T00:15:19;5.05;;;2.72;;
62933;SDS011;49038;47.600;19.242;2023-06-19T00:18:21;3.95;;;2.62;;
62933;SDS011;49038;47.600;19.242;2023-06-19T00:21:24;4.28;;;3.10;;
62933;SDS011;49038;47.600;19.242;2023-06-19T00:24:27;4.97;;;2.70;;
62933;SDS011;49038;47.600;19.242;2023-06-19T00:27:29;4.80;;;3.00;;
62933;SDS011;49038;47.600;19.242;2023-06-19T00:30:31;3.22;;;2.62;;
62933;SDS011;49038;47.600;19.242;2023-06-19T00:33:34;3.95;;;2.47;;
62933;SDS011;49038;47.600;19.242;2023-06-19T00:36:36;3.92;;;3.08;;
62933;SDS011;49038;47.600;19.242;2023-06-19T00:39:42;5.97;;;2.85;;
62933;SDS011;49038;47.600;19.242;2023-06-19T00:42:45;4.75;;;3.15;;
62933;SDS011;49038;47.600;19.242;2023-06-19T00:45:48;5.05;;;2.83;;
62933;SDS011;49038;47.600;19.242;2023-06-19T00:48:50;3.87;;;2.83;;
62933;SDS011;49038;47.600;19.242;2023-06-19T00:51:53;5.87;;;3.20;;
62933;SDS011;49038;47.600;19.242;2023-06-19T00:54:55;5.50;;;2.65;;
62933;SDS011;49038;47.600;19.242;2023-06-19T00:57:58;7.70;;;3.37;;
62933;SDS011;49038;47.600;19.242;2023-06-19T01:01:01;6.37;;;3.03;;
62933;SDS011;49038;47.600;19.242;2023-06-19T01:04:10;4.68;;;2.85;;
62933;SDS011;49038;47.600;19.242;2023-06-19T01:07:13;4.55;;;2.70;;
62933;SDS011;49038;47.600;19.242;2023-06-19T01:10:19;4.57;;;2.80;;
62933;SDS011;49038;47.600;19.242;2023-06-19T01:13:46;3.53;;;2.50;;
62933;SDS011;49038;47.600;19.242;2023-06-19T01:16:50;4.03;;;3.03;;
62933;SDS011;49038;47.600;19.242;2023-06-19T01:19:53;3.78;;;2.87;;
62933;SDS011;49038;47.600;19.242;2023-06-19T01:22:56;4.35;;;3.03;;
62933;SDS011;49038;47.600;19.242;2023-06-19T01:25:59;4.25;;;2.78;;
62933;SDS011;49038;47.600;19.242;2023-06-19T01:29:01;4.40;;;3.08;;
62933;SDS011;49038;47.600;19.242;2023-06-19T01:32:04;4.28;;;2.70;;
62933;SDS011;49038;47.600;19.242;2023-06-19T01:35:10;3.20;;;2.60;;
62933;SDS011;49038;47.600;19.242;2023-06-19T01:38:15;4.25;;;2.58;;
62933;SDS011;49038;47.600;19.242;2023-06-19T01:41:18;4.05;;;2.65;;
62933;SDS011;49038;47.600;19.242;2023-06-19T01:44:21;8.35;;;2.78;;
62933;SDS011;49038;47.600;19.242;2023-06-19T01:47:23;4.37;;;3.05;;
62933;SDS011;49038;47.600;19.242;2023-06-19T01:50:26;3.92;;;2.80;;
62933;SDS011;49038;47.600;19.242;2023-06-19T01:53:30;5.75;;;3.40;;
62933;SDS011;49038;47.600;19.242;2023-06-19T01:56:33;4.25;;;2.75;;
62933;SDS011;49038;47.600;19.242;2023-06-19T01:59:35;5.97;;;2.47;;
62933;SDS011;49038;47.600;19.242;2023-06-19T02:02:37;7.18;;;3.20;;
62933;SDS011;49038;47.600;19.242;2023-06-19T02:05:40;3.50;;;2.20;;
62933;SDS011;49038;47.600;19.242;2023-06-19T02:08:42;3.85;;;2.55;;
62933;SDS011;49038;47.600;19.242;2023-06-19T02:11:44;7.22;;;3.30;;
62933;SDS011;49038;47.600;19.242;2023-06-19T02:14:46;3.83;;;2.78;;
62933;SDS011;49038;47.600;19.242;2023-06-19T02:17:49;5.37;;;3.55;;
62933;SDS011;49038;47.600;19.242;2023-06-19T02:20:57;4.07;;;2.97;;
62933;SDS011;49038;47.600;19.242;2023-06-19T02:23:59;5.10;;;3.35;;
62933;SDS011;49038;47.600;19.242;2023-06-19T02:27:01;9.25;;;3.22;;
62933;SDS011;49038;47.600;19.242;2023-06-19T02:30:04;4.37;;;3.12;;
62933;SDS011;49038;47.600;19.242;2023-06-19T02:33:07;5.28;;;3.00;;
62933;SDS011;49038;47.600;19.242;2023-06-19T02:36:09;4.75;;;3.35;;
62933;SDS011;49038;47.600;19.242;2023-06-19T02:39:12;5.28;;;3.08;;
62933;SDS011;49038;47.600;19.242;2023-06-19T02:42:15;4.43;;;3.00;;
62933;SDS011;49038;47.600;19.242;2023-06-19T02:45:17;8.57;;;2.90;;
62933;SDS011;49038;47.600;19.242;2023-06-19T02:48:19;4.12;;;3.10;;
62933;SDS011;49038;47.600;19.242;2023-06-19T02:51:22;4.80;;;3.20;;
62933;SDS011;49038;47.600;19.242;2023-06-19T02:54:24;5.12;;;2.92;;
62933;SDS011;49038;47.600;19.242;2023-06-19T02:57:26;5.68;;;3.28;;
62933;SDS011;49038;47.600;19.242;2023-06-19T03:00:28;4.60;;;3.00;;
62933;SDS011;49038;47.600;19.242;2023-06-19T03:03:30;5.15;;;3.12;;
62933;SDS011;49038;47.600;19.242;2023-06-19T03:06:33;4.12;;;2.90;;
62933;SDS011;49038;47.600;19.242;2023-06-19T03:09:41;7.30;;;3.17;;
62933;SDS011;49038;47.600;19.242;2023-06-19T03:12:43;4.20;;;2.53;;
62933;SDS011;49038;47.600;19.242;2023-06-19T03:15:45;7.22;;;3.92;;
62933;SDS011;49038;47.600;19.242;2023-06-19T03:18:48;7.47;;;3.22;;
62933;SDS011;49038;47.600;19.242;2023-06-19T03:21:54;6.00;;;3.55;;
62933;SDS011;49038;47.600;19.242;2023-06-19T03:24:56;5.10;;;3.37;;
62933;SDS011;49038;47.600;19.242;2023-06-19T03:27:58;13.80;;;3.35;;
62933;SDS011;49038;47.600;19.242;2023-06-19T03:31:00;6.22;;;3.70;;
62933;SDS011;49038;47.600;19.242;2023-06-19T03:34:02;4.18;;;3.00;;
62933;SDS011;49038;47.600;19.242;2023-06-19T03:37:05;8.07;;;3.53;;
62933;SDS011;49038;47.600;19.242;2023-06-19T03:40:07;7.32;;;3.28;;
62933;SDS011;49038;47.600;19.242;2023-06-19T03:43:15;5.57;;;3.25;;
62933;SDS011;49038;47.600;19.242;2023-06-19T03:46:17;6.45;;;3.47;;
62933;SDS011;49038;47.600;19.242;2023-06-19T03:49:19;3.67;;;2.92;;
62933;SDS011;49038;47.600;19.242;2023-06-19T03:52:22;4.30;;;3.00;;
62933;SDS011;49038;47.600;19.242;2023-06-19T03:55:24;5.82;;;3.60;;
62933;SDS011;49038;47.600;19.242;2023-06-19T03:58:26;4.70;;;3.20;;
62933;SDS011;49038;47.600;19.242;2023-06-19T04:01:28;9.65;;;3.33;;
62933;SDS011;49038;47.600;19.242;2023-06-19T04:04:31;6.25;;;3.83;;
62933;SDS011;49038;47.600;19.242;2023-06-19T04:07:33;15.35;;;3.87;;
62933;SDS011;49038;47.600;19.242;2023-06-19T04:10:35;7.53;;;3.60;;
62933;SDS011;49038;47.600;19.242;2023-06-19T04:13:38;6.18;;;3.40;;
62933;SDS011;49038;47.600;19.242;2023-06-19T04:16:40;4.37;;;3.08;;
62933;SDS011;49038;47.600;19.242;2023-06-19T04:19:42;5.05;;;3.20;;
62933;SDS011;49038;47.600;19.242;2023-06-19T04:22:44;3.08;;;2.67;;
62933;SDS011;49038;47.600;19.242;2023-06-19T04:25:46;5.53;;;3.42;;
62933;SDS011;49038;47.600;19.242;2023-06-19T04:28:49;5.80;;;3.33;;
62933;SDS011;49038;47.600;19.242;2023-06-19T04:31:51;6.07;;;3.45;;
62933;SDS011;49038;47.600;19.242;2023-06-19T04:34:53;3.95;;;2.90;;
62933;SDS011;49038;47.600;19.242;2023-06-19T04:37:56;4.03;;;3.05;;
62933;SDS011;49038;47.600;19.242;2023-06-19T04:40:58;4.15;;;3.12;;
62933;SDS011;49038;47.600;19.242;2023-06-19T04:44:00;4.22;;;2.90;;
62933;SDS011;49038;47.600;19.242;2023-06-19T04:47:05;6.10;;;3.20;;
62933;SDS011;49038;47.600;19.242;2023-06-19T04:50:07;5.25;;;3.37;;
62933;SDS011;49038;47.600;19.242;2023-06-19T04:53:10;6.68;;;3.50;;
62933;SDS011;49038;47.600;19.242;2023-06-19T04:56:13;7.00;;;2.97;;
62933;SDS011;49038;47.600;19.242;2023-06-19T04:59:16;4.15;;;2.75;;
62933;SDS011;49038;47.600;19.242;2023-06-19T05:02:20;6.43;;;3.35;;
62933;SDS011;49038;47.600;19.242;2023-06-19T05:05:22;6.57;;;3.00;;
62933;SDS011;49038;47.600;19.242;2023-06-19T05:08:25;4.65;;;3.10;;
62933;SDS011;49038;47.600;19.242;2023-06-19T05:11:27;5.37;;;3.20;;
62933;SDS011;49038;47.600;19.242;2023-06-19T05:14:30;4.30;;;2.97;;
62933;SDS011;49038;47.600;19.242;2023-06-19T05:17:32;7.62;;;3.22;;
62933;SDS011;49038;47.600;19.242;2023-06-19T05:20:34;6.20;;;3.85;;
62933;SDS011;49038;47.600;19.242;2023-06-19T05:23:37;4.78;;;3.50;;
62933;SDS011;49038;47.600;19.242;2023-06-19T05:26:40;4.90;;;3.47;;
62933;SDS011;49038;47.600;19.242;2023-06-19T05:29:42;5.30;;;3.50;;
62933;SDS011;49038;47.600;19.242;2023-06-19T05:32:44;5.85;;;3.35;;
62933;SDS011;49038;47.600;19.242;2023-06-19T05:35:47;5.85;;;3.17;;
62933;SDS011;49038;47.600;19.242;2023-06-19T05:38:54;8.40;;;4.22;;
62933;SDS011;49038;47.600;19.242;2023-06-19T05:41:56;9.95;;;3.85;;
62933;SDS011;49038;47.600;19.242;2023-06-19T05:44:59;5.65;;;3.78;;
62933;SDS011;49038;47.600;19.242;2023-06-19T05:48:01;6.05;;;3.83;;
62933;SDS011;49038;47.600;19.242;2023-06-19T05:51:04;5.40;;;3.90;;
62933;SDS011;49038;47.600;19.242;2023-06-19T05:54:06;4.45;;;3.40;;
62933;SDS011;49038;47.600;19.242;2023-06-19T05:57:08;4.97;;;3.65;;
62933;SDS011;49038;47.600;19.242;2023-06-19T06:00:10;5.30;;;3.35;;
62933;SDS011;49038;47.600;19.242;2023-06-19T06:03:16;5.18;;;3.28;;
62933;SDS011;49038;47.600;19.242;2023-06-19T06:06:18;4.57;;;3.10;;
62933;SDS011;49038;47.600;19.242;2023-06-19T06:09:20;5.30;;;3.72;;
62933;SDS011;49038;47.600;19.242;2023-06-19T06:12:22;6.32;;;3.45;;
62933;SDS011;49038;47.600;19.242;2023-06-19T06:15:25;5.10;;;3.37;;
62933;SDS011;49038;47.600;19.242;2023-06-19T06:18:27;4.07;;;2.90;;
62933;SDS011;49038;47.600;19.242;2023-06-19T06:21:29;6.55;;;3.20;;
62933;SDS011;49038;47.600;19.242;2023-06-19T06:24:31;3.67;;;2.92;;
62933;SDS011;49038;47.600;19.242;2023-06-19T06:27:34;3.20;;;2.85;;
62933;SDS011;49038;47.600;19.242;2023-06-19T06:30:36;6.25;;;2.90;;
62933;SDS011;49038;47.600;19.242;2023-06-19T06:33:38;5.22;;;2.87;;
62933;SDS011;49038;47.600;19.242;2023-06-19T06:36:40;5.10;;;3.28;;
62933;SDS011;49038;47.600;19.242;2023-06-19T06:40:02;6.05;;;2.75;;
62933;SDS011;49038;47.600;19.242;2023-06-19T06:43:07;9.50;;;3.47;;
62933;SDS011;49038;47.600;19.242;2023-06-19T06:46:10;4.18;;;3.10;;
62933;SDS011;49038;47.600;19.242;2023-06-19T06:49:12;4.70;;;2.60;;
62933;SDS011;49038;47.600;19.242;2023-06-19T06:52:14;5.47;;;3.50;;
62933;SDS011;49038;47.600;19.242;2023-06-19T06:55:16;5.35;;;3.20;;
62933;SDS011;49038;47.600;19.242;2023-06-19T06:58:19;4.05;;;2.67;;
62933;SDS011;49038;47.600;19.242;2023-06-19T07:01:21;6.28;;;3.00;;
62933;SDS011;49038;47.600;19.242;2023-06-19T07:04:23;6.30;;;3.08;;
62933;SDS011;49038;47.600;19.242;2023-06-19T07:07:26;4.43;;;3.10;;
62933;SDS011;49038;47.600;19.242;2023-06-19T07:10:28;4.25;;;2.72;;
62933;SDS011;49038;47.600;19.242;2023-06-19T07:13:30;4.62;;;2.75;;
62933;SDS011;49038;47.600;19.242;2023-06-19T07:16:32;3.47;;;2.72;;
62933;SDS011;49038;47.600;19.242;2023-06-19T07:19:35;4.45;;;2.37;;
62933;SDS011;49038;47.600;19.242;2023-06-19T07:22:37;2.92;;;2.40;;
62933;SDS011;49038;47.600;19.242;2023-06-19T07:25:39;3.45;;;2.45;;
62933;SDS011;49038;47.600;19.242;2023-06-19T07:28:42;3.45;;;2.60;;
62933;SDS011;49038;47.600;19.242;2023-06-19T07:31:44;3.55;;;2.75;;
62933;SDS011;49038;47.600;19.242;2023-06-19T07:34:46;3.00;;;2.58;;
62933;SDS011;49038;47.600;19.242;2023-06-19T07:37:49;2.85;;;2.53;;
62933;SDS011;49038;47.600;19.242;2023-06-19T07:40:51;5.62;;;2.92;;
62933;SDS011;49038;47.600;19.242;2023-06-19T07:43:53;4.15;;;2.97;;
62933;SDS011;49038;47.600;19.242;2023-06-19T07:46:55;3.92;;;2.60;;
62933;SDS011;49038;47.600;19.242;2023-06-19T07:49:57;3.08;;;2.33;;
62933;SDS011;49038;47.600;19.242;2023-06-19T07:53:00;2.90;;;2.50;;
62933;SDS011;49038;47.600;19.242;2023-06-19T07:56:02;2.42;;;2.22;;
62933;SDS011;49038;47.600;19.242;2023-06-19T07:59:05;3.72;;;2.30;;
62933;SDS011;49038;47.600;19.242;2023-06-19T08:02:07;3.75;;;2.50;;
62933;SDS011;49038;47.600;19.242;2023-06-19T08:05:10;3.58;;;2.50;;
62933;SDS011;49038;47.600;19.242;2023-06-19T08:08:13;4.85;;;2.33;;
62933;SDS011;49038;47.600;19.242;2023-06-19T08:11:15;4.07;;;2.53;;
62933;SDS011;49038;47.600;19.242;2023-06-19T08:14:17;3.85;;;2.50;;
62933;SDS011;49038;47.600;19.242;2023-06-19T08:17:20;2.87;;;2.37;;
62933;SDS011;49038;47.600;19.242;2023-06-19T08:20:22;2.87;;;2.40;;
62933;SDS011;49038;47.600;19.242;2023-06-19T08:23:25;5.22;;;2.50;;
62933;SDS011;49038;47.600;19.242;2023-06-19T08:26:27;2.65;;;2.08;;
62933;SDS011;49038;47.600;19.242;2023-06-19T08:29:29;4.28;;;2.40;;
62933;SDS011;49038;47.600;19.242;2023-06-19T08:32:31;4.85;;;2.67;;
62933;SDS011;49038;47.600;19.242;2023-06-19T08:35:35;2.60;;;2.10;;
62933;SDS011;49038;47.600;19.242;2023-06-19T08:38:37;3.22;;;2.20;;
62933;SDS011;49038;47.600;19.242;2023-06-19T08:41:39;3.25;;;2.37;;
62933;SDS011;49038;47.600;19.242;2023-06-19T08:44:43;3.72;;;2.47;;
62933;SDS011;49038;47.600;19.242;2023-06-19T08:47:45;3.25;;;2.30;;
62933;SDS011;49038;47.600;19.242;2023-06-19T08:50:49;3.70;;;2.70;;
62933;SDS011;49038;47.600;19.242;2023-06-19T08:54:02;4.03;;;2.50;;
62933;SDS011;49038;47.600;19.242;2023-06-19T08:57:06;3.90;;;2.42;;
62933;SDS011;49038;47.600;19.242;2023-06-19T09:00:08;3.55;;;2.47;;
62933;SDS011;49038;47.600;19.242;2023-06-19T09:03:19;6.07;;;2.55;;
62933;SDS011;49038;47.600;19.242;2023-06-19T09:06:22;4.03;;;2.62;;
62933;SDS011;49038;47.600;19.242;2023-06-19T09:09:25;3.17;;;2.40;;
62933;SDS011;49038;47.600;19.242;2023-06-19T09:12:28;3.35;;;2.50;;
62933;SDS011;49038;47.600;19.242;2023-06-19T09:15:31;6.28;;;2.70;;
62933;SDS011;49038;47.600;19.242;2023-06-19T09:18:44;3.20;;;2.70;;
62933;SDS011;49038;47.600;19.242;2023-06-19T09:21:47;3.28;;;2.40;;
62933;SDS011;49038;47.600;19.242;2023-06-19T09:24:50;2.70;;;2.08;;
62933;SDS011;49038;47.600;19.242;2023-06-19T09:27:53;6.70;;;2.30;;
62933;SDS011;49038;47.600;19.242;2023-06-19T09:30:59;3.78;;;2.55;;
62933;SDS011;49038;47.600;19.242;2023-06-19T09:34:02;4.10;;;2.65;;
62933;SDS011;49038;47.600;19.242;2023-06-19T09:37:05;4.47;;;2.47;;
62933;SDS011;49038;47.600;19.242;2023-06-19T09:40:09;2.78;;;2.25;;
62933;SDS011;49038;47.600;19.242;2023-06-19T09:43:12;6.10;;;3.08;;
62933;SDS011;49038;47.600;19.242;2023-06-19T09:46:17;3.65;;;2.60;;
62933;SDS011;49038;47.600;19.242;2023-06-19T09:49:20;6.72;;;2.40;;
62933;SDS011;49038;47.600;19.242;2023-06-19T09:52:24;3.72;;;2.78;;
62933;SDS011;49038;47.600;19.242;2023-06-19T09:55:27;3.20;;;2.30;;
62933;SDS011;49038;47.600;19.242;2023-06-19T09:58:32;3.40;;;2.65;;
62933;SDS011;49038;47.600;19.242;2023-06-19T10:01:35;3.67;;;2.37;;
62933;SDS011;49038;47.600;19.242;2023-06-19T10:04:42;8.63;;;2.72;;
62933;SDS011;49038;47.600;19.242;2023-06-19T10:07:49;3.78;;;2.53;;
62933;SDS011;49038;47.600;19.242;2023-06-19T10:10:51;3.35;;;2.33;;
62933;SDS011;49038;47.600;19.242;2023-06-19T10:14:05;2.95;;;2.30;;
62933;SDS011;49038;47.600;19.242;2023-06-19T10:17:08;3.03;;;2.37;;
62933;SDS011;49038;47.600;19.242;2023-06-19T10:23:26;4.40;;;2.55;;
62933;SDS011;49038;47.600;19.242;2023-06-19T10:26:34;9.00;;;2.58;;
62933;SDS011;49038;47.600;19.242;2023-06-19T10:29:37;2.58;;;2.00;;
62933;SDS011;49038;47.600;19.242;2023-06-19T10:32:41;2.35;;;2.05;;
62933;SDS011;49038;47.600;19.242;2023-06-19T10:35:44;3.53;;;2.28;;
62933;SDS011;49038;47.600;19.242;2023-06-19T10:38:46;3.72;;;2.40;;
62933;SDS011;49038;47.600;19.242;2023-06-19T10:41:51;4.05;;;2.78;;
62933;SDS011;49038;47.600;19.242;2023-06-19T10:44:59;2.95;;;2.08;;
62933;SDS011;49038;47.600;19.242;2023-06-19T10:48:04;3.58;;;2.75;;
62933;SDS011;49038;47.600;19.242;2023-06-19T10:51:07;3.08;;;2.37;;
62933;SDS011;49038;47.600;19.242;2023-06-19T10:54:09;3.45;;;2.28;;
62933;SDS011;49038;47.600;19.242;2023-06-19T10:57:12;4.65;;;2.22;;
62933;SDS011;49038;47.600;19.242;2023-06-19T11:00:28;3.72;;;2.50;;
62933;SDS011;49038;47.600;19.242;2023-06-19T11:03:32;4.30;;;2.25;;
62933;SDS011;49038;47.600;19.242;2023-06-19T11:06:35;4.40;;;2.08;;
62933;SDS011;49038;47.600;19.242;2023-06-19T11:09:38;3.40;;;2.53;;
62933;SDS011;49038;47.600;19.242;2023-06-19T11:12:42;4.12;;;2.53;;
62933;SDS011;49038;47.600;19.242;2023-06-19T11:15:45;2.90;;;2.12;;
62933;SDS011;49038;47.600;19.242;2023-06-19T11:18:48;2.67;;;2.22;;
62933;SDS011;49038;47.600;19.242;2023-06-19T11:21:50;4.28;;;2.72;;
62933;SDS011;49038;47.600;19.242;2023-06-19T11:24:53;6.35;;;2.62;;
62933;SDS011;49038;47.600;19.242;2023-06-19T11:27:56;2.60;;;2.08;;
62933;SDS011;49038;47.600;19.242;2023-06-19T11:31:00;2.78;;;2.30;;
62933;SDS011;49038;47.600;19.242;2023-06-19T11:34:03;4.72;;;2.40;;
62933;SDS011;49038;47.600;19.242;2023-06-19T11:40:18;6.15;;;2.70;;
62933;SDS011;49038;47.600;19.242;2023-06-19T11:43:26;5.30;;;2.40;;
62933;SDS011;49038;47.600;19.242;2023-06-19T11:46:29;5.68;;;2.30;;
62933;SDS011;49038;47.600;19.242;2023-06-19T11:49:35;5.50;;;2.50;;
62933;SDS011;49038;47.600;19.242;2023-06-19T11:52:38;2.55;;;1.98;;
62933;SDS011;49038;47.600;19.242;2023-06-19T11:55:41;2.90;;;2.10;;
62933;SDS011;49038;47.600;19.242;2023-06-19T11:58:43;3.70;;;2.60;;
62933;SDS011;49038;47.600;19.242;2023-06-19T12:01:47;6.75;;;3.08;;
62933;SDS011;49038;47.600;19.242;2023-06-19T12:04:49;3.87;;;2.40;;
62933;SDS011;49038;47.600;19.242;2023-06-19T12:07:52;3.50;;;2.70;;
62933;SDS011;49038;47.600;19.242;2023-06-19T12:10:54;2.67;;;2.12;;
62933;SDS011;49038;47.600;19.242;2023-06-19T12:13:56;4.50;;;2.62;;
62933;SDS011;49038;47.600;19.242;2023-06-19T12:16:59;4.93;;;2.30;;
62933;SDS011;49038;47.600;19.242;2023-06-19T12:20:02;3.17;;;2.47;;
62933;SDS011;49038;47.600;19.242;2023-06-19T12:23:07;4.53;;;2.80;;
62933;SDS011;49038;47.600;19.242;2023-06-19T12:26:09;2.80;;;2.42;;
62933;SDS011;49038;47.600;19.242;2023-06-19T12:29:12;5.22;;;2.62;;
62933;SDS011;49038;47.600;19.242;2023-06-19T12:32:14;4.75;;;2.65;;
62933;SDS011;49038;47.600;19.242;2023-06-19T12:35:16;3.92;;;2.83;;
62933;SDS011;49038;47.600;19.242;2023-06-19T12:38:20;3.87;;;2.83;;
62933;SDS011;49038;47.600;19.242;2023-06-19T12:41:22;5.20;;;3.00;;
62933;SDS011;49038;47.600;19.242;2023-06-19T12:44:24;3.00;;;2.50;;
62933;SDS011;49038;47.600;19.242;2023-06-19T12:47:26;3.25;;;2.47;;
62933;SDS011;49038;47.600;19.242;2023-06-19T12:50:29;5.97;;;3.03;;
62933;SDS011;49038;47.600;19.242;2023-06-19T12:53:31;4.47;;;2.75;;
62933;SDS011;49038;47.600;19.242;2023-06-19T12:56:34;3.30;;;2.80;;
62933;SDS011;49038;47.600;19.242;2023-06-19T12:59:36;3.55;;;2.60;;
62933;SDS011;49038;47.600;19.242;2023-06-19T13:02:39;4.30;;;2.90;;
62933;SDS011;49038;47.600;19.242;2023-06-19T13:05:42;3.22;;;2.58;;
62933;SDS011;49038;47.600;19.242;2023-06-19T13:08:44;2.78;;;2.42;;
62933;SDS011;49038;47.600;19.242;2023-06-19T13:11:47;3.50;;;2.50;;
62933;SDS011;49038;47.600;19.242;2023-06-19T13:14:49;4.78;;;3.12;;
62933;SDS011;49038;47.600;19.242;2023-06-19T13:17:51;4.45;;;2.62;;
62933;SDS011;49038;47.600;19.242;2023-06-19T13:20:54;5.60;;;2.70;;
62933;SDS011;49038;47.600;19.242;2023-06-19T13:23:57;3.30;;;2.53;;
62933;SDS011;49038;47.600;19.242;2023-06-19T13:26:59;5.07;;;2.55;;
62933;SDS011;49038;47.600;19.242;2023-06-19T13:30:02;6.25;;;2.50;;
62933;SDS011;49038;47.600;19.242;2023-06-19T13:33:04;4.22;;;2.65;;
62933;SDS011;49038;47.600;19.242;2023-06-19T13:36:06;3.42;;;2.58;;
62933;SDS011;49038;47.600;19.242;2023-06-19T13:39:09;3.65;;;2.58;;
62933;SDS011;49038;47.600;19.242;2023-06-19T13:42:11;3.08;;;2.58;;
62933;SDS011;49038;47.600;19.242;2023-06-19T13:45:14;5.78;;;2.55;;
62933;SDS011;49038;47.600;19.242;2023-06-19T13:48:16;3.62;;;2.72;;
62933;SDS011;49038;47.600;19.242;2023-06-19T13:51:20;4.10;;;2.87;;
62933;SDS011;49038;47.600;19.242;2023-06-19T13:54:23;4.68;;;3.40;;
62933;SDS011;49038;47.600;19.242;2023-06-19T13:57:25;4.43;;;3.08;;
62933;SDS011;49038;47.600;19.242;2023-06-19T14:00:28;4.20;;;2.72;;
62933;SDS011;49038;47.600;19.242;2023-06-19T14:03:30;3.53;;;2.60;;
62933;SDS011;49038;47.600;19.242;2023-06-19T14:06:33;4.12;;;3.00;;
62933;SDS011;49038;47.600;19.242;2023-06-19T14:09:35;9.32;;;3.50;;
62933;SDS011;49038;47.600;19.242;2023-06-19T14:12:37;4.57;;;3.05;;
62933;SDS011;49038;47.600;19.242;2023-06-19T14:15:40;5.07;;;2.87;;
62933;SDS011;49038;47.600;19.242;2023-06-19T14:18:42;5.47;;;3.37;;
62933;SDS011;49038;47.600;19.242;2023-06-19T14:21:44;3.90;;;3.03;;
62933;SDS011;49038;47.600;19.242;2023-06-19T14:24:46;8.32;;;4.85;;
62933;SDS011;49038;47.600;19.242;2023-06-19T14:27:49;3.47;;;2.75;;
62933;SDS011;49038;47.600;19.242;2023-06-19T14:30:51;4.12;;;2.70;;
62933;SDS011;49038;47.600;19.242;2023-06-19T14:33:53;5.05;;;2.60;;
62933;SDS011;49038;47.600;19.242;2023-06-19T14:36:56;3.72;;;2.65;;
62933;SDS011;49038;47.600;19.242;2023-06-19T14:39:58;3.05;;;2.65;;
62933;SDS011;49038;47.600;19.242;2023-06-19T14:43:01;5.20;;;2.78;;
62933;SDS011;49038;47.600;19.242;2023-06-19T14:46:03;3.80;;;2.80;;
62933;SDS011;49038;47.600;19.242;2023-06-19T14:49:06;7.22;;;3.35;;
62933;SDS011;49038;47.600;19.242;2023-06-19T14:52:09;3.55;;;2.97;;
62933;SDS011;49038;47.600;19.242;2023-06-19T14:55:11;5.75;;;2.95;;
62933;SDS011;49038;47.600;19.242;2023-06-19T14:58:14;3.60;;;2.83;;
62933;SDS011;49038;47.600;19.242;2023-06-19T15:01:16;4.25;;;2.83;;
62933;SDS011;49038;47.600;19.242;2023-06-19T15:04:18;3.58;;;2.60;;
62933;SDS011;49038;47.600;19.242;2023-06-19T15:07:21;4.03;;;2.80;;
62933;SDS011;49038;47.600;19.242;2023-06-19T15:10:24;6.37;;;3.87;;
62933;SDS011;49038;47.600;19.242;2023-06-19T15:13:26;3.25;;;2.70;;
62933;SDS011;49038;47.600;19.242;2023-06-19T15:16:29;5.30;;;3.17;;
62933;SDS011;49038;47.600;19.242;2023-06-19T15:19:31;6.82;;;3.35;;
62933;SDS011;49038;47.600;19.242;2023-06-19T15:22:33;4.03;;;3.20;;
62933;SDS011;49038;47.600;19.242;2023-06-19T15:25:35;3.67;;;2.80;;
62933;SDS011;49038;47.600;19.242;2023-06-19T15:28:38;3.85;;;2.85;;
62933;SDS011;49038;47.600;19.242;2023-06-19T15:31:40;4.00;;;2.92;;
62933;SDS011;49038;47.600;19.242;2023-06-19T15:34:42;3.42;;;2.70;;
62933;SDS011;49038;47.600;19.242;2023-06-19T15:37:45;9.82;;;4.07;;
62933;SDS011;49038;47.600;19.242;2023-06-19T15:40:47;3.33;;;3.03;;
62933;SDS011;49038;47.600;19.242;2023-06-19T15:43:49;6.75;;;3.62;;
62933;SDS011;49038;47.600;19.242;2023-06-19T15:46:51;5.53;;;3.35;;
62933;SDS011;49038;47.600;19.242;2023-06-19T15:49:54;11.98;;;3.37;;
62933;SDS011;49038;47.600;19.242;2023-06-19T15:52:56;3.90;;;2.90;;
62933;SDS011;49038;47.600;19.242;2023-06-19T15:55:58;3.87;;;3.00;;
62933;SDS011;49038;47.600;19.242;2023-06-19T15:59:01;4.05;;;3.15;;
62933;SDS011;49038;47.600;19.242;2023-06-19T16:02:03;5.78;;;3.28;;
62933;SDS011;49038;47.600;19.242;2023-06-19T16:05:06;6.35;;;3.03;;
62933;SDS011;49038;47.600;19.242;2023-06-19T16:08:08;3.87;;;2.80;;
62933;SDS011;49038;47.600;19.242;2023-06-19T16:11:10;4.22;;;3.10;;
62933;SDS011;49038;47.600;19.242;2023-06-19T16:14:13;6.28;;;3.17;;
62933;SDS011;49038;47.600;19.242;2023-06-19T16:17:17;3.62;;;2.72;;
62933;SDS011;49038;47.600;19.242;2023-06-19T16:20:19;4.65;;;2.90;;
62933;SDS011;49038;47.600;19.242;2023-06-19T16:23:21;4.05;;;2.70;;
62933;SDS011;49038;47.600;19.242;2023-06-19T16:26:23;3.62;;;2.67;;
62933;SDS011;49038;47.600;19.242;2023-06-19T16:29:26;4.68;;;3.10;;
62933;SDS011;49038;47.600;19.242;2023-06-19T16:32:28;4.05;;;2.97;;
62933;SDS011;49038;47.600;19.242;2023-06-19T16:35:31;4.47;;;3.00;;
62933;SDS011;49038;47.600;19.242;2023-06-19T16:38:33;4.82;;;3.08;;
62933;SDS011;49038;47.600;19.242;2023-06-19T16:41:35;6.68;;;3.58;;
62933;SDS011;49038;47.600;19.242;2023-06-19T16:44:38;4.62;;;3.12;;
62933;SDS011;49038;47.600;19.242;2023-06-19T16:47:40;6.68;;;3.35;;
62933;SDS011;49038;47.600;19.242;2023-06-19T16:50:42;4.53;;;3.00;;
62933;SDS011;49038;47.600;19.242;2023-06-19T16:53:45;6.35;;;2.90;;
62933;SDS011;49038;47.600;19.242;2023-06-19T16:56:48;8.07;;;3.60;;
62933;SDS011;49038;47.600;19.242;2023-06-19T16:59:50;5.47;;;3.22;;
62933;SDS011;49038;47.600;19.242;2023-06-19T17:02:52;3.83;;;2.72;;
62933;SDS011;49038;47.600;19.242;2023-06-19T17:05:57;6.72;;;3.37;;
62933;SDS011;49038;47.600;19.242;2023-06-19T17:08:59;5.00;;;2.90;;
62933;SDS011;49038;47.600;19.242;2023-06-19T17:12:02;4.07;;;3.45;;
62933;SDS011;49038;47.600;19.242;2023-06-19T17:15:04;8.50;;;4.18;;
62933;SDS011;49038;47.600;19.242;2023-06-19T17:18:07;4.78;;;3.17;;
62933;SDS011;49038;47.600;19.242;2023-06-19T17:21:10;4.75;;;3.15;;
62933;SDS011;49038;47.600;19.242;2023-06-19T17:24:12;4.50;;;3.20;;
62933;SDS011;49038;47.600;19.242;2023-06-19T17:27:17;5.37;;;3.05;;
62933;SDS011;49038;47.600;19.242;2023-06-19T17:30:20;4.62;;;3.00;;
62933;SDS011;49038;47.600;19.242;2023-06-19T17:33:22;6.12;;;3.30;;
62933;SDS011;49038;47.600;19.242;2023-06-19T17:36:24;4.20;;;2.72;;
62933;SDS011;49038;47.600;19.242;2023-06-19T17:39:29;6.93;;;2.92;;
62933;SDS011;49038;47.600;19.242;2023-06-19T17:42:32;3.30;;;2.80;;
62933;SDS011;49038;47.600;19.242;2023-06-19T17:45:34;6.10;;;3.37;;
62933;SDS011;49038;47.600;19.242;2023-06-19T17:48:36;5.70;;;3.28;;
62933;SDS011;49038;47.600;19.242;2023-06-19T17:51:40;6.53;;;3.80;;
62933;SDS011;49038;47.600;19.242;2023-06-19T17:54:42;6.97;;;3.60;;
62933;SDS011;49038;47.600;19.242;2023-06-19T17:57:52;4.95;;;3.50;;
62933;SDS011;49038;47.600;19.242;2023-06-19T18:00:54;7.78;;;4.12;;
62933;SDS011;49038;47.600;19.242;2023-06-19T18:03:56;5.57;;;3.92;;
62933;SDS011;49038;47.600;19.242;2023-06-19T18:06:59;9.50;;;4.32;;
62933;SDS011;49038;47.600;19.242;2023-06-19T18:10:01;4.82;;;3.50;;